Thorn, Mississippi
Current Conditions -  °F | °C
As of 8:55 AM on Friday 24 Oct 2014 (Local Time) from KM40 Reporting Station
Clear Clear  
Wind Chill: 54°   Ceiling: Unl
Heat Index: 54°   Visibility: 8mi
Dew Point: 39°   Wind: 6mph
Humidity: 58%   Direction: 340°NNW
Pressure: 30.16"   Gusts: NA
Location:  33.9121°N, 88.9314°W
Report Text: KM40 241355Z AUTO 34005KT 8SM CLR 12/04 A3016 RMK AO2
Loading
Personal Weather Stations






























Interactive Weather Map
Tropical Storm Tracking
New forecast layout! Learn more

10-Day Weather Forecast

Advertisements
Track Severe Weather on mobile